Thunder radar more information blitzortung!


Radar de pluja more information rain snow radar


Visita la nostra xarxa de llocs de meteo:

Template documentation
and downloads

And another site



No particular awareness of the weather is required.    There are no Weather-warnings

Pagina Historial Weather Underground text

Diari Resum Marc 22, 2016 Unitats:  Mètric    Imperial   Tant
« Previous Dia
SegĂźent Dia »
Diari Setmana Mensual Anual Personalitzada
  Maxima: Minima: Media:
Temperatura: 18.3 °C 6.4 °C 15.2 °C
Punt de rosada: 9.6 °C -1.8 °C 6.3 °C
Humitat: 72 % 49 % 56 %
Wind Speed: 11.4 km/h 0.0 km/h 2.9 km/h
RĂ fegues de vent: 14.5 km/h - -
Vent:- - WSW
Pression baro: 1007.0 hPa 1001.9 hPa -
Precipitacions: 0.0 mm    
Historical Graphs
 
 
Dades de taula per Marc 22, 2016
Temps Temperatura Punt de rosada Pression baro Vent Wind Speed RĂ fegues de vent Humitat Rainfall Rate (Hourly)
05:45 13.1 °C 8.2 °C 1007.0 hPa NE 1.6 km/h 4.8 km/h 72 % 0.0 mm
05:55 13.6 °C 8.7 °C 1006.0 hPa NE 4.8 km/h 4.8 km/h 72 % 0.0 mm
06:05 13.9 °C 8.7 °C 1006.0 hPa NE 3.2 km/h 4.8 km/h 71 % 0.0 mm
06:15 14.8 °C 9.4 °C 1005.0 hPa ENE 1.6 km/h 4.8 km/h 70 % 0.0 mm
06:25 15.4 °C 9.5 °C 1006.0 hPa NE 3.2 km/h 6.4 km/h 68 % 0.0 mm
06:35 15.5 °C 9.2 °C 1006.0 hPa NNE 4.8 km/h 6.4 km/h 66 % 0.0 mm
06:45 15.3 °C 9.0 °C 1006.0 hPa NNE 1.6 km/h 4.8 km/h 66 % 0.0 mm
12:49 15.5 °C 9.4 °C 1006.0 hPa NNE 1.9 km/h 2.3 km/h 67 % 0.0 mm
12:54 15.7 °C 9.6 °C 1006.0 hPa ENE 4.7 km/h 4.7 km/h 67 % 0.0 mm
13:09 15.7 °C 9.6 °C 1006.0 hPa ENE 2.6 km/h 2.6 km/h 67 % 0.0 mm
13:14 15.7 °C 9.6 °C 1006.0 hPa ENE 2.6 km/h 2.6 km/h 67 % 0.0 mm
13:19 16.3 °C 9.2 °C 1006.0 hPa WSW 4.2 km/h 4.2 km/h 63 % 0.0 mm
13:24 16.3 °C 9.2 °C 1005.0 hPa WSW 11.4 km/h 11.4 km/h 63 % 0.0 mm
13:29 16.3 °C 9.2 °C 1005.0 hPa WNW 1.9 km/h 3.5 km/h 63 % 0.0 mm
13:34 16.3 °C 9.2 °C 1005.0 hPa WNW 1.9 km/h 3.5 km/h 63 % 0.0 mm
13:39 16.1 °C 8.3 °C 1003.9 hPa WSW 6.1 km/h 6.1 km/h 60 % 0.0 mm
13:44 16.1 °C 8.3 °C 1003.9 hPa West 5.6 km/h 5.8 km/h 60 % 0.0 mm
13:49 16.1 °C 8.3 °C 1003.9 hPa WSW 5.8 km/h 5.8 km/h 60 % 0.0 mm
13:55 16.1 °C 8.3 °C 1003.9 hPa WSW 6.4 km/h 6.4 km/h 60 % 0.0 mm
14:00 16.1 °C 8.3 °C 1003.9 hPa West 5.6 km/h 5.6 km/h 60 % 0.0 mm
14:05 16.4 °C 8.1 °C 1003.9 hPa WSW 3.2 km/h 9.7 km/h 58 % 0.0 mm
14:10 16.5 °C 7.9 °C 1003.9 hPa WSW 5.6 km/h 5.6 km/h 57 % 0.0 mm
14:15 16.6 °C 8.3 °C 1003.9 hPa WSW 3.2 km/h 6.4 km/h 58 % 0.0 mm
14:25 16.6 °C 8.3 °C 1003.9 hPa WSW 3.2 km/h 4.8 km/h 58 % 0.0 mm
14:30 16.6 °C 8.3 °C 1003.9 hPa West 4.2 km/h 4.2 km/h 58 % 0.0 mm
14:35 16.6 °C 8.3 °C 1003.9 hPa WSW 3.2 km/h 12.9 km/h 58 % 0.0 mm
14:40 16.6 °C 8.3 °C 1003.9 hPa West 4.2 km/h 4.2 km/h 58 % 0.0 mm
14:45 16.6 °C 8.3 °C 1003.9 hPa WSW 4.8 km/h 8.0 km/h 58 % 0.0 mm
14:50 16.6 °C 8.3 °C 1003.9 hPa WSW 1.6 km/h 8.0 km/h 58 % 0.0 mm
14:55 16.6 °C 8.3 °C 1002.9 hPa WSW 1.6 km/h 8.0 km/h 58 % 0.0 mm
15:00 16.6 °C 8.3 °C 1002.9 hPa WSW 1.6 km/h 4.8 km/h 58 % 0.0 mm
15:05 16.6 °C 8.3 °C 1002.9 hPa West 3.2 km/h 8.0 km/h 58 % 0.0 mm
15:10 16.6 °C 8.3 °C 1002.9 hPa WSW 8.0 km/h 8.0 km/h 58 % 0.0 mm
15:15 16.7 °C 7.1 °C 1002.9 hPa West 3.2 km/h 9.7 km/h 53 % 0.0 mm
15:20 16.7 °C 7.1 °C 1002.9 hPa West 3.2 km/h 6.4 km/h 53 % 0.0 mm
15:25 16.7 °C 7.1 °C 1002.9 hPa West 4.8 km/h 4.8 km/h 53 % 0.0 mm
15:30 16.7 °C 7.1 °C 1002.9 hPa WSW 9.3 km/h 9.3 km/h 53 % 0.0 mm
15:40 16.7 °C 7.1 °C 1002.9 hPa WSW 8.0 km/h 8.0 km/h 53 % 0.0 mm
15:45 16.7 °C 7.1 °C 1002.9 hPa WSW 3.2 km/h 4.8 km/h 53 % 0.0 mm
15:50 16.7 °C 7.1 °C 1002.9 hPa WSW 4.8 km/h 9.7 km/h 53 % 0.0 mm
15:55 16.7 °C 7.1 °C 1002.9 hPa WSW 3.2 km/h 8.0 km/h 53 % 0.0 mm
16:00 16.7 °C 7.1 °C 1002.9 hPa West 4.8 km/h 14.5 km/h 53 % 0.0 mm
16:05 17.7 °C 6.8 °C 1002.9 hPa West 3.2 km/h 12.9 km/h 49 % 0.0 mm
16:10 17.8 °C 6.9 °C 1002.9 hPa West 3.2 km/h 11.3 km/h 49 % 0.0 mm
16:15 17.8 °C 6.9 °C 1002.9 hPa West 3.2 km/h 9.7 km/h 49 % 0.0 mm
16:20 17.8 °C 6.9 °C 1002.9 hPa WSW 3.2 km/h 4.8 km/h 49 % 0.0 mm
16:25 18.0 °C 7.1 °C 1001.9 hPa WNW 3.2 km/h 4.8 km/h 49 % 0.0 mm
16:30 18.2 °C 7.6 °C 1001.9 hPa WNW 3.2 km/h 8.0 km/h 50 % 0.0 mm
16:35 18.3 °C 7.7 °C 1001.9 hPa WNW 3.2 km/h 8.0 km/h 50 % 0.0 mm
16:40 18.1 °C 7.5 °C 1001.9 hPa WNW 4.8 km/h 9.7 km/h 50 % 0.0 mm
16:45 17.9 °C 7.3 °C 1001.9 hPa West 4.8 km/h 4.8 km/h 50 % 0.0 mm
16:50 17.8 °C 7.2 °C 1001.9 hPa West 3.2 km/h 8.0 km/h 50 % 0.0 mm
16:55 17.7 °C 7.2 °C 1001.9 hPa NW 3.2 km/h 8.0 km/h 50 % 0.0 mm
17:00 17.6 °C 7.3 °C 1001.9 hPa NW 3.2 km/h 9.7 km/h 51 % 0.0 mm
17:05 17.7 °C 7.4 °C 1001.9 hPa WNW 3.2 km/h 6.4 km/h 51 % 0.0 mm
17:10 17.7 °C 7.4 °C 1001.9 hPa West 1.6 km/h 4.8 km/h 51 % 0.0 mm
17:15 18.1 °C 7.8 °C 1001.9 hPa WSW 3.2 km/h 8.0 km/h 51 % 0.0 mm
17:20 18.1 °C 7.8 °C 1001.9 hPa WSW 1.6 km/h 8.0 km/h 51 % 0.0 mm
17:25 18.0 °C 7.7 °C 1001.9 hPa SW 3.2 km/h 4.8 km/h 51 % 0.0 mm
17:30 18.0 °C 7.7 °C 1001.9 hPa WSW 3.2 km/h 8.0 km/h 51 % 0.0 mm
17:35 17.8 °C 7.3 °C 1001.9 hPa WNW 4.8 km/h 8.0 km/h 50 % 0.0 mm
17:40 17.8 °C 7.5 °C 1001.9 hPa NW 3.2 km/h 4.8 km/h 51 % 0.0 mm
17:45 17.7 °C 7.4 °C 1001.9 hPa NW 1.6 km/h 4.8 km/h 51 % 0.0 mm
17:50 17.7 °C 7.4 °C 1001.9 hPa Calm   4.8 km/h 51 % 0.0 mm
17:55 11.2 °C 2.5 °C 1002.9 hPa WSW 4.8 km/h 6.4 km/h 55 % 0.0 mm
18:00 17.4 °C 7.2 °C 1001.9 hPa WNW 3.2 km/h 4.8 km/h 51 % 0.0 mm
18:05 17.2 °C 7.0 °C 1001.9 hPa WNW 3.2 km/h 8.0 km/h 51 % 0.0 mm
18:10 17.2 °C 6.9 °C 1001.9 hPa West 3.2 km/h 6.4 km/h 51 % 0.0 mm
18:15 17.1 °C 6.8 °C 1001.9 hPa WSW 3.2 km/h 3.2 km/h 51 % 0.0 mm
18:20 16.9 °C 7.0 °C 1001.9 hPa WSW 3.7 km/h 5.3 km/h 52 % 0.0 mm
18:25 16.8 °C 6.9 °C 1001.9 hPa WSW 3.7 km/h 5.3 km/h 52 % 0.0 mm
18:30 16.7 °C 6.8 °C 1001.9 hPa WSW 6.1 km/h 6.1 km/h 52 % 0.0 mm
18:35 16.5 °C 6.6 °C 1001.9 hPa West 1.6 km/h 6.4 km/h 52 % 0.0 mm
18:40 16.3 °C 6.4 °C 1001.9 hPa West 1.6 km/h 4.8 km/h 52 % 0.0 mm
18:45 16.2 °C 6.3 °C 1001.9 hPa WNW 1.6 km/h 3.2 km/h 52 % 0.0 mm
18:50 16.1 °C 6.2 °C 1001.9 hPa NW 1.6 km/h 4.8 km/h 52 % 0.0 mm
18:55 15.9 °C 6.3 °C 1001.9 hPa WNW 1.6 km/h 3.2 km/h 53 % 0.0 mm
19:00 15.7 °C 6.2 °C 1001.9 hPa Calm   3.2 km/h 53 % 0.0 mm
19:05 15.6 °C 6.1 °C 1001.9 hPa Calm   3.2 km/h 53 % 0.0 mm
19:10 15.4 °C 5.9 °C 1001.9 hPa Calm     53 % 0.0 mm
19:15 15.3 °C 5.8 °C 1001.9 hPa Calm     53 % 0.0 mm
19:20 15.2 °C 5.7 °C 1001.9 hPa Calm     53 % 0.0 mm
19:25 15.1 °C 5.8 °C 1001.9 hPa Calm     54 % 0.0 mm
19:30 15.0 °C 5.8 °C 1001.9 hPa Calm     54 % 0.0 mm
19:35 14.9 °C 5.7 °C 1001.9 hPa Calm     54 % 0.0 mm
19:40 14.9 °C 5.7 °C 1001.9 hPa WSW 1.6 km/h 1.6 km/h 54 % 0.0 mm
19:45 14.9 °C 5.7 °C 1001.9 hPa SW 1.6 km/h 3.2 km/h 54 % 0.0 mm
19:50 14.9 °C 5.7 °C 1001.9 hPa SW 1.6 km/h 3.2 km/h 54 % 0.0 mm
19:55 14.8 °C 5.8 °C 1002.9 hPa Calm   3.2 km/h 55 % 0.0 mm
20:00 14.7 °C 5.7 °C 1002.9 hPa Calm     55 % 0.0 mm
20:05 14.7 °C 5.7 °C 1002.9 hPa Calm   1.6 km/h 55 % 0.0 mm
20:10 14.4 °C 5.8 °C 1002.9 hPa Calm     56 % 0.0 mm
20:15 14.2 °C 5.6 °C 1002.9 hPa SW 3.2 km/h 3.2 km/h 56 % 0.0 mm
20:20 14.1 °C 5.6 °C 1002.9 hPa WSW 1.6 km/h 3.2 km/h 57 % 0.0 mm
20:25 14.0 °C 5.6 °C 1002.9 hPa WSW 1.6 km/h 3.2 km/h 57 % 0.0 mm
20:30 14.2 °C 5.8 °C 1002.9 hPa WSW 3.2 km/h 6.4 km/h 57 % 0.0 mm
20:35 14.4 °C 5.7 °C 1002.9 hPa West 4.8 km/h 9.7 km/h 56 % 0.0 mm
20:40 14.4 °C 5.7 °C 1002.9 hPa West 3.7 km/h 5.0 km/h 56 % 0.0 mm
20:45 14.5 °C 5.8 °C 1002.9 hPa WSW 3.2 km/h 3.2 km/h 56 % 0.0 mm
20:50 14.5 °C 5.8 °C 1002.9 hPa WSW 3.2 km/h 6.4 km/h 56 % 0.0 mm
20:55 14.4 °C 5.7 °C 1002.9 hPa West 3.2 km/h 6.4 km/h 56 % 0.0 mm
21:00 14.3 °C 5.6 °C 1002.9 hPa West 4.8 km/h 6.4 km/h 56 % 0.0 mm
21:05 14.2 °C 5.6 °C 1002.9 hPa West 4.8 km/h 4.8 km/h 56 % 0.0 mm
21:10 14.1 °C 5.4 °C 1002.9 hPa Calm   1.6 km/h 56 % 0.0 mm
21:15 13.9 °C 5.3 °C 1002.9 hPa Calm   1.6 km/h 56 % 0.0 mm
21:20 13.8 °C 5.2 °C 1002.9 hPa Calm     56 % 0.0 mm
21:25 13.7 °C 5.1 °C 1002.9 hPa Calm     56 % 0.0 mm
21:30 13.5 °C 5.2 °C 1002.9 hPa Calm     57 % 0.0 mm
21:35 13.3 °C 4.9 °C 1002.9 hPa Calm   1.6 km/h 57 % 0.0 mm
21:40 13.3 °C 4.9 °C 1002.9 hPa SSW 3.2 km/h 4.8 km/h 57 % 0.0 mm
21:45 13.3 °C 4.9 °C 1002.9 hPa WSW 3.2 km/h 8.0 km/h 57 % 0.0 mm
21:50 13.2 °C 4.6 °C 1002.9 hPa SW 3.2 km/h 8.0 km/h 56 % 0.0 mm
21:55 13.1 °C 4.5 °C 1002.9 hPa WSW 1.6 km/h 4.8 km/h 56 % 0.0 mm
22:00 13.1 °C 4.4 °C 1002.9 hPa West 3.2 km/h 4.8 km/h 56 % 0.0 mm
22:05 12.9 °C 4.4 °C 1002.9 hPa WSW 1.6 km/h 4.8 km/h 56 % 0.0 mm
22:10 12.9 °C 4.3 °C 1002.9 hPa WNW 3.2 km/h 8.0 km/h 56 % 0.0 mm
22:15 12.9 °C 4.3 °C 1002.9 hPa NW 3.2 km/h 8.0 km/h 56 % 0.0 mm
22:20 12.8 °C 4.2 °C 1002.9 hPa WNW 3.2 km/h 8.0 km/h 56 % 0.0 mm
22:25 12.6 °C 4.1 °C 1002.9 hPa SSW 3.2 km/h 6.4 km/h 56 % 0.0 mm
22:30 12.5 °C 3.9 °C 1002.9 hPa SW 3.2 km/h 6.4 km/h 56 % 0.0 mm
22:35 7.2 °C -1.2 °C 1001.9 hPa Calm   4.8 km/h 55 % 0.0 mm
22:40 12.4 °C 3.8 °C 1002.9 hPa SW 3.2 km/h 4.8 km/h 56 % 0.0 mm
22:45 12.3 °C 3.8 °C 1002.9 hPa WSW 3.2 km/h 4.8 km/h 56 % 0.0 mm
22:50 12.2 °C 3.7 °C 1002.9 hPa WSW 3.2 km/h 4.8 km/h 56 % 0.0 mm
22:55 12.1 °C 3.6 °C 1002.9 hPa WSW 3.2 km/h 8.0 km/h 56 % 0.0 mm
23:00 12.1 °C 3.6 °C 1002.9 hPa WSW 4.8 km/h 9.7 km/h 56 % 0.0 mm
23:05 12.0 °C 3.5 °C 1002.9 hPa WSW 3.2 km/h 8.0 km/h 56 % 0.0 mm
23:15 6.7 °C -1.4 °C 1001.9 hPa WNW 3.2 km/h 4.8 km/h 56 % 0.0 mm
23:25 6.6 °C -1.6 °C 1001.9 hPa West 3.2 km/h 6.4 km/h 56 % 0.0 mm
23:35 6.5 °C -1.7 °C 1001.9 hPa West 1.6 km/h 6.4 km/h 56 % 0.0 mm
23:45 6.5 °C -1.7 °C 1001.9 hPa NNW 3.2 km/h 4.8 km/h 56 % 0.0 mm
23:55 6.4 °C -1.8 °C 1002.9 hPa West 3.2 km/h 6.4 km/h 56 % 0.0 mm
Meteo Sesrovires
Elogis d' Weather Underground - 3.25 mb

Guio original per  Jim McMurry - jmcmurry@mwt.net Adaptat per a la plantilla per  Wim van der Kuil - Leuven-Template.eu

Trobareu la nostra informacio del temps tambe a:

Weather Underground

AWEKAS